createdAt,value
2019-02-25T00:00:46.352Z,100070.11
2019-02-25T00:01:48.741Z,100069.83
2019-02-25T00:02:51.075Z,100070.77
2019-02-25T00:03:53.363Z,100069.43
2019-02-25T00:04:55.481Z,100072.38
2019-02-25T00:05:57.528Z,100065.38
2019-02-25T00:06:59.657Z,100068.05
2019-02-25T00:08:01.968Z,100073.17
2019-02-25T00:09:04.960Z,100074.45
2019-02-25T00:10:09.109Z,100069.41
2019-02-25T00:11:11.360Z,100068.55
2019-02-25T00:12:14.138Z,100074.25
2019-02-25T00:13:17.416Z,100076.92
2019-02-25T00:14:21.021Z,100081.25
2019-02-25T00:15:23.002Z,100076.92
2019-02-25T00:16:25.034Z,100076.74
2019-02-25T00:17:27.112Z,100071.79
2019-02-25T00:18:29.267Z,100074.08
2019-02-25T00:19:31.239Z,100070.45
2019-02-25T00:20:33.334Z,100071.03
2019-02-25T00:21:35.392Z,100074.37
2019-02-25T00:22:37.494Z,100068.61
2019-02-25T00:23:39.782Z,100070.26
2019-02-25T00:24:41.940Z,100071.93
2019-02-25T00:25:44.056Z,100072.47
2019-02-25T00:26:47.724Z,100070.66
2019-02-25T00:27:49.526Z,100073.80
2019-02-25T00:28:51.680Z,100079.04
2019-02-25T00:29:54.882Z,100078.64
2019-02-25T00:30:56.918Z,100079.23
2019-02-25T00:31:59.016Z,100077.49
2019-02-25T00:33:01.105Z,100083.44
2019-02-25T00:34:03.248Z,100074.45
2019-02-25T00:35:05.677Z,100075.17
2019-02-25T00:36:07.788Z,100077.84
2019-02-25T00:37:09.998Z,100074.13
2019-02-25T00:38:12.131Z,100070.13
2019-02-25T00:39:14.273Z,100070.13
2019-02-25T00:40:16.017Z,100074.83
2019-02-25T00:41:18.055Z,100066.20
2019-02-25T00:42:19.929Z,100065.55
2019-02-25T00:43:22.205Z,100067.25
2019-02-25T00:44:24.257Z,100064.22
2019-02-25T00:45:26.167Z,100066.39
2019-02-25T00:46:28.241Z,100069.40
2019-02-25T00:47:30.277Z,100064.75
2019-02-25T00:48:32.449Z,100068.81
2019-02-25T00:49:34.673Z,100062.86
2019-02-25T00:50:36.743Z,100060.20
2019-02-25T00:51:39.032Z,100069.01
2019-02-25T00:52:41.128Z,100065.22
2019-02-25T00:53:43.357Z,100063.41
2019-02-25T00:54:45.451Z,100063.43
2019-02-25T00:55:47.442Z,100063.74
2019-02-25T00:56:49.456Z,100063.83
2019-02-25T00:57:51.705Z,100063.80
2019-02-25T00:58:55.473Z,100067.59
2019-02-25T00:59:57.335Z,100060.73
2019-02-25T01:00:59.325Z,100058.75
2019-02-25T01:02:02.929Z,100050.77
2019-02-25T01:03:05.635Z,100054.28
2019-02-25T01:04:07.843Z,100052.44
2019-02-25T01:05:09.960Z,100053.16
2019-02-25T01:06:12.036Z,100056.48
2019-02-25T01:07:15.190Z,100057.17
2019-02-25T01:08:17.445Z,100052.38
2019-02-25T01:09:19.461Z,100055.05
2019-02-25T01:10:21.910Z,100052.55
2019-02-25T01:11:23.734Z,100056.23
2019-02-25T01:12:25.936Z,100053.57
2019-02-25T01:13:28.042Z,100056.23
2019-02-25T01:14:30.069Z,100049.72
2019-02-25T01:15:32.166Z,100049.23
2019-02-25T01:16:34.168Z,100045.58
2019-02-25T01:17:36.144Z,100048.24
2019-02-25T01:18:38.360Z,100040.97
2019-02-25T01:19:40.436Z,100038.30
2019-02-25T01:20:42.522Z,100043.11
2019-02-25T01:21:44.719Z,100046.97
2019-02-25T01:22:46.969Z,100041.33
2019-02-25T01:23:49.084Z,100043.83
2019-02-25T01:24:51.981Z,100041.73
2019-02-25T01:25:54.971Z,100045.41
2019-02-25T01:26:56.836Z,100042.41
2019-02-25T01:27:59.183Z,100037.08
2019-02-25T01:29:01.209Z,100039.55
2019-02-25T01:30:11.753Z,100036.73
2019-02-25T01:31:13.411Z,100029.94
2019-02-25T01:32:15.694Z,100032.42
2019-02-25T01:33:17.704Z,100032.80
2019-02-25T01:34:19.857Z,100034.80
2019-02-25T01:35:21.923Z,100031.34
2019-02-25T01:36:23.833Z,100038.85
2019-02-25T01:37:25.623Z,100030.34
2019-02-25T01:38:27.912Z,100029.87
2019-02-25T01:39:29.556Z,100032.19
2019-02-25T01:40:31.607Z,100029.87
2019-02-25T01:41:33.701Z,100031.53
2019-02-25T01:42:35.670Z,100021.88
2019-02-25T01:43:39.867Z,100023.20
2019-02-25T01:44:41.911Z,100023.40
2019-02-25T01:45:43.819Z,100023.26
2019-02-25T01:46:45.781Z,100018.75
2019-02-25T01:47:48.015Z,100016.23
2019-02-25T01:48:49.665Z,100016.76
2019-02-25T01:49:51.754Z,100018.75
2019-02-25T01:50:53.999Z,100017.61
2019-02-25T01:51:55.830Z,100017.27
2019-02-25T01:52:57.752Z,100013.28
2019-02-25T01:53:59.734Z,100012.28
2019-02-25T01:55:01.540Z,100018.27
2019-02-25T01:56:04.780Z,100017.27
2019-02-25T01:57:06.957Z,100022.45
2019-02-25T01:58:09.163Z,100021.95
2019-02-25T01:59:11.704Z,100020.33
2019-02-25T02:00:17.891Z,100011.48
2019-02-25T02:01:19.985Z,100009.16
2019-02-25T02:02:22.149Z,100006.67
2019-02-25T02:03:23.997Z,100001.86
2019-02-25T02:04:25.840Z,99999.88
2019-02-25T02:05:27.982Z,99999.39
2019-02-25T02:06:29.967Z,99998.88
2019-02-25T02:07:31.931Z,99997.41
2019-02-25T02:08:34.118Z,99992.41
2019-02-25T02:09:35.974Z,99996.27
2019-02-25T02:10:38.283Z,99995.92
2019-02-25T02:11:40.377Z,99997.11
2019-02-25T02:12:42.765Z,99989.45
2019-02-25T02:13:44.709Z,99985.94
2019-02-25T02:14:46.928Z,99988.79
2019-02-25T02:15:49.116Z,99988.13
2019-02-25T02:16:53.172Z,99984.65
2019-02-25T02:17:55.359Z,99980.66
2019-02-25T02:18:57.522Z,99981.98
2019-02-25T02:19:59.384Z,99982.32
2019-02-25T02:21:01.436Z,99973.84
2019-02-25T02:22:03.363Z,99975.17
2019-02-25T02:23:05.272Z,99962.81
2019-02-25T02:24:07.589Z,99972.52
2019-02-25T02:25:11.243Z,99964.85
2019-02-25T02:26:13.163Z,99969.33
2019-02-25T02:27:14.891Z,99959.52
2019-02-25T02:28:17.223Z,99954.82
2019-02-25T02:29:19.252Z,99957.67
2019-02-25T02:30:21.878Z,99953.34
2019-02-25T02:31:23.657Z,99948.86
2019-02-25T02:32:25.862Z,99951.81
2019-02-25T02:33:27.789Z,99951.02
2019-02-25T02:34:29.633Z,99945.49
2019-02-25T02:35:31.588Z,99950.19
2019-02-25T02:36:33.341Z,99948.81
2019-02-25T02:37:35.262Z,99955.63
2019-02-25T02:38:37.143Z,99959.61
2019-02-25T02:39:39.006Z,99956.91
2019-02-25T02:40:41.411Z,99964.41
2019-02-25T02:42:13.381Z,99960.67
2019-02-25T02:43:16.336Z,99959.32
2019-02-25T02:44:18.245Z,99963.95
2019-02-25T02:45:37.570Z,99971.27
2019-02-25T02:46:45.268Z,99967.22
2019-02-25T02:47:55.397Z,99967.22
2019-02-25T02:49:01.404Z,99974.02
2019-02-25T02:50:11.586Z,99971.15
2019-02-25T02:51:13.496Z,99975.26
2019-02-25T02:52:17.404Z,99978.53
2019-02-25T02:53:19.487Z,99974.02
2019-02-25T02:54:21.452Z,99977.99
2019-02-25T02:55:23.525Z,99978.22
2019-02-25T02:56:25.600Z,99980.87
2019-02-25T02:57:27.520Z,99977.50
2019-02-25T02:58:29.534Z,99978.34
2019-02-25T02:59:32.747Z,99978.44
2019-02-25T03:00:34.982Z,99972.44
2019-02-25T03:01:37.039Z,99968.11
2019-02-25T03:02:38.893Z,99962.78
2019-02-25T03:03:40.798Z,99960.45
2019-02-25T03:04:42.958Z,99966.12
2019-02-25T03:05:44.855Z,99965.13
2019-02-25T03:06:47.186Z,99965.50
2019-02-25T03:07:49.357Z,99964.19
2019-02-25T03:08:54.457Z,99963.17
2019-02-25T03:09:58.803Z,99960.84
2019-02-25T03:11:00.508Z,99953.71
2019-02-25T03:12:04.522Z,99955.86
2019-02-25T03:13:06.463Z,99955.52
2019-02-25T03:14:08.303Z,99951.73
2019-02-25T03:15:17.020Z,99960.63
2019-02-25T03:16:18.805Z,99963.51
2019-02-25T03:17:20.688Z,99958.98
2019-02-25T03:18:22.786Z,99967.91
2019-02-25T03:19:25.689Z,99968.90
2019-02-25T03:20:27.785Z,99969.12
2019-02-25T03:21:29.766Z,99972.89
2019-02-25T03:22:31.618Z,99964.91
2019-02-25T03:23:33.635Z,99962.78
2019-02-25T03:24:35.602Z,99962.11
2019-02-25T03:25:37.635Z,99964.06
2019-02-25T03:26:39.659Z,99961.06
2019-02-25T03:27:41.335Z,99960.78
2019-02-25T03:28:43.615Z,99964.57
2019-02-25T03:29:45.625Z,99961.57
2019-02-25T03:30:47.405Z,99966.98
2019-02-25T03:31:49.362Z,99964.57
2019-02-25T03:32:51.367Z,99967.65
2019-02-25T03:33:54.548Z,99966.91
2019-02-25T03:34:56.574Z,99966.43
2019-02-25T03:35:58.718Z,99967.11
2019-02-25T03:37:00.566Z,99959.33
2019-02-25T03:38:02.796Z,99969.04
2019-02-25T03:39:06.268Z,99966.58
2019-02-25T03:40:17.838Z,99966.64
2019-02-25T03:41:20.273Z,99965.53
2019-02-25T03:42:22.616Z,99964.12
2019-02-25T03:43:24.478Z,99964.52
2019-02-25T03:44:26.247Z,99968.05
2019-02-25T03:45:28.661Z,99969.44
2019-02-25T03:46:30.418Z,99973.82
2019-02-25T03:47:32.463Z,99969.31
2019-02-25T03:48:34.614Z,99970.50
2019-02-25T03:49:36.599Z,99970.70
2019-02-25T03:50:38.721Z,99968.42
2019-02-25T03:51:40.842Z,99967.62
2019-02-25T03:52:42.543Z,99964.82
2019-02-25T03:53:44.582Z,99966.01
2019-02-25T03:54:46.798Z,99963.69
2019-02-25T03:55:48.722Z,99966.01
2019-02-25T03:56:50.895Z,99968.50
2019-02-25T03:57:53.250Z,99964.31
2019-02-25T03:58:55.202Z,99967.48
2019-02-25T03:59:57.420Z,99965.96
2019-02-25T04:00:59.603Z,99965.48
2019-02-25T04:02:01.832Z,99957.84
2019-02-25T04:03:04.085Z,99967.09
2019-02-25T04:04:06.175Z,99967.55
2019-02-25T04:05:09.324Z,99962.71
2019-02-25T04:06:11.535Z,99959.71
2019-02-25T04:07:13.495Z,99963.90
2019-02-25T04:08:15.471Z,99955.91
2019-02-25T04:09:17.630Z,99952.40
2019-02-25T04:10:20.155Z,99949.11
2019-02-25T04:11:21.949Z,99949.45
2019-02-25T04:12:26.322Z,99951.27
2019-02-25T04:13:28.498Z,99948.27
2019-02-25T04:14:30.593Z,99946.45
2019-02-25T04:15:34.339Z,99946.73
2019-02-25T04:16:37.526Z,99948.21
2019-02-25T04:17:39.499Z,99940.40
2019-02-25T04:18:41.303Z,99944.20
2019-02-25T04:19:45.406Z,99946.06
2019-02-25T04:20:47.322Z,99939.55
2019-02-25T04:21:49.129Z,99947.39
2019-02-25T04:22:51.088Z,99945.72
2019-02-25T04:23:53.415Z,99938.22
2019-02-25T04:24:55.508Z,99945.55
2019-02-25T04:25:57.417Z,99939.21
2019-02-25T04:26:59.515Z,99940.03
2019-02-25T04:28:01.512Z,99942.07
2019-02-25T04:29:03.698Z,99937.08
2019-02-25T04:30:16.424Z,99941.92
2019-02-25T04:31:18.276Z,99934.90
2019-02-25T04:32:21.755Z,99939.27
2019-02-25T04:33:23.652Z,99940.08
2019-02-25T04:34:25.552Z,99937.42
2019-02-25T04:35:27.465Z,99937.94
2019-02-25T04:36:29.481Z,99937.42
2019-02-25T04:37:31.522Z,99931.80
2019-02-25T04:38:36.492Z,99933.63
2019-02-25T04:39:38.263Z,99929.34
2019-02-25T04:40:41.934Z,99927.02
2019-02-25T04:41:43.767Z,99929.16
2019-02-25T04:42:46.331Z,99933.02
2019-02-25T04:43:48.365Z,99930.02
2019-02-25T04:44:51.500Z,99934.01
2019-02-25T04:45:53.816Z,99932.34
2019-02-25T04:46:55.794Z,99927.35
2019-02-25T04:47:58.120Z,99930.20
2019-02-25T04:49:00.249Z,99930.73
2019-02-25T04:50:03.185Z,99931.41
2019-02-25T04:51:05.407Z,99932.06
2019-02-25T04:52:07.293Z,99931.58
2019-02-25T04:53:09.580Z,99934.25
2019-02-25T04:54:11.313Z,99939.86
2019-02-25T04:55:14.387Z,99934.68
2019-02-25T04:56:17.523Z,99936.72
2019-02-25T04:57:21.327Z,99941.87
2019-02-25T04:58:23.225Z,99936.73
2019-02-25T04:59:25.354Z,99938.44
2019-02-25T05:00:27.872Z,99942.91
2019-02-25T05:01:30.025Z,99944.58
2019-02-25T05:02:32.185Z,99937.12
2019-02-25T05:03:34.601Z,99941.85
2019-02-25T05:04:36.603Z,99941.20
2019-02-25T05:05:38.355Z,99938.38
2019-02-25T05:06:40.427Z,99935.58
2019-02-25T05:07:42.832Z,99935.58
2019-02-25T05:08:44.692Z,99938.23
2019-02-25T05:09:46.568Z,99936.73
2019-02-25T05:10:48.539Z,99933.10
2019-02-25T05:11:50.689Z,99925.74
2019-02-25T05:13:03.134Z,99937.92
2019-02-25T05:14:04.904Z,99936.78
2019-02-25T05:15:08.375Z,99944.58
2019-02-25T05:16:11.090Z,99942.59
2019-02-25T05:17:13.261Z,99948.63
2019-02-25T05:18:15.127Z,99942.95
2019-02-25T05:19:17.109Z,99944.62
2019-02-25T05:20:19.370Z,99950.95
2019-02-25T05:21:21.242Z,99954.77
2019-02-25T05:22:23.143Z,99949.95
2019-02-25T05:23:25.111Z,99955.14
2019-02-25T05:24:27.103Z,99955.33
2019-02-25T05:25:29.075Z,99952.30
2019-02-25T05:26:31.077Z,99950.95
2019-02-25T05:27:32.798Z,99948.66
2019-02-25T05:28:35.270Z,99950.33
2019-02-25T05:29:37.100Z,99954.16
2019-02-25T05:30:40.303Z,99959.66
2019-02-25T05:31:42.287Z,99955.00
2019-02-25T05:32:46.098Z,99958.33
2019-02-25T05:33:47.970Z,99957.98
2019-02-25T05:34:49.965Z,99961.98
2019-02-25T05:35:52.071Z,99960.98
2019-02-25T05:36:53.963Z,99957.47
2019-02-25T05:37:55.820Z,99949.63
2019-02-25T05:38:58.900Z,99960.66
2019-02-25T05:40:01.181Z,99955.66
2019-02-25T05:41:03.335Z,99953.48
2019-02-25T05:42:05.239Z,99962.14
2019-02-25T05:43:07.087Z,99956.00
2019-02-25T05:44:09.326Z,99959.00
2019-02-25T05:45:13.179Z,99955.34
2019-02-25T05:46:15.248Z,99956.33
2019-02-25T05:47:17.586Z,99951.67
2019-02-25T05:48:19.529Z,99955.34
2019-02-25T05:49:21.789Z,99945.20
2019-02-25T05:50:23.907Z,99946.53
2019-02-25T05:51:25.611Z,99933.02
2019-02-25T05:52:27.693Z,99938.53
2019-02-25T05:53:29.569Z,99933.20
2019-02-25T05:54:31.823Z,99940.67
2019-02-25T05:55:34.091Z,99936.83
2019-02-25T05:56:36.457Z,99937.69
2019-02-25T05:57:38.455Z,99936.83
2019-02-25T05:58:40.449Z,99939.34
2019-02-25T05:59:42.750Z,99946.34
2019-02-25T06:00:44.705Z,99938.69
2019-02-25T06:01:46.506Z,99938.69
2019-02-25T06:02:48.947Z,99936.84
2019-02-25T06:03:50.870Z,99938.88
2019-02-25T06:04:52.715Z,99942.72
2019-02-25T06:05:54.670Z,99941.21
2019-02-25T06:06:57.881Z,99948.24
2019-02-25T06:08:00.564Z,99952.06
2019-02-25T06:09:03.693Z,99952.06
2019-02-25T06:10:08.797Z,99942.25
2019-02-25T06:11:11.023Z,99939.92
2019-02-25T06:12:13.134Z,99930.93
2019-02-25T06:13:15.021Z,99929.78
2019-02-25T06:14:17.179Z,99929.78
2019-02-25T06:15:19.524Z,99926.79
2019-02-25T06:16:21.363Z,99924.78
2019-02-25T06:17:23.378Z,99926.30
2019-02-25T06:18:25.530Z,99924.46
2019-02-25T06:19:27.282Z,99922.13
2019-02-25T06:20:29.284Z,99924.65
2019-02-25T06:21:31.531Z,99911.47
2019-02-25T06:22:33.586Z,99925.16
2019-02-25T06:23:35.706Z,99913.36
2019-02-25T06:24:37.526Z,99916.84
2019-02-25T06:25:41.344Z,99908.52
2019-02-25T06:26:43.447Z,99910.84
2019-02-25T06:27:45.320Z,99909.88
2019-02-25T06:28:47.490Z,99913.03
2019-02-25T06:29:49.558Z,99915.21
2019-02-25T06:30:51.437Z,99912.22
2019-02-25T06:31:53.506Z,99919.70
2019-02-25T06:32:55.434Z,99919.88
2019-02-25T06:33:57.367Z,99914.41
2019-02-25T06:34:59.382Z,99914.12
2019-02-25T06:36:01.525Z,99917.56
2019-02-25T06:37:03.286Z,99914.75
2019-02-25T06:38:07.202Z,99921.05
2019-02-25T06:39:09.060Z,99917.70
2019-02-25T06:40:20.705Z,99918.08
2019-02-25T06:41:22.711Z,99919.31
2019-02-25T06:42:24.822Z,99919.66
2019-02-25T06:43:26.965Z,99922.61
2019-02-25T06:44:29.050Z,99928.12
2019-02-25T06:45:34.440Z,99932.78
2019-02-25T06:46:36.500Z,99941.09
2019-02-25T06:47:38.445Z,99937.05
2019-02-25T06:48:40.536Z,99934.63
2019-02-25T06:49:42.799Z,99941.77
2019-02-25T06:50:44.678Z,99948.77
2019-02-25T06:51:46.629Z,99937.44
2019-02-25T06:52:48.919Z,99940.10
2019-02-25T06:53:50.787Z,99942.11
2019-02-25T06:54:52.567Z,99948.09
2019-02-25T06:55:54.570Z,99945.23
2019-02-25T06:56:56.740Z,99944.85
2019-02-25T06:57:59.990Z,99947.98
2019-02-25T06:59:01.921Z,99952.93
2019-02-25T07:00:09.297Z,99949.30
2019-02-25T07:01:11.053Z,99955.11
2019-02-25T07:02:13.067Z,99951.05
2019-02-25T07:03:14.862Z,99945.58
2019-02-25T07:04:18.973Z,99944.97
2019-02-25T07:05:39.336Z,99947.09
2019-02-25T07:06:46.164Z,99942.70
2019-02-25T07:07:49.339Z,99946.54
2019-02-25T07:08:53.188Z,99945.48
2019-02-25T07:09:59.407Z,99952.59
2019-02-25T07:11:20.187Z,99948.89
2019-02-25T07:12:25.794Z,99939.30
2019-02-25T07:13:44.985Z,99937.25
2019-02-25T07:14:48.728Z,99935.52
2019-02-25T07:16:05.497Z,99939.09
2019-02-25T07:17:12.433Z,99936.97
2019-02-25T07:18:32.524Z,99929.25
2019-02-25T07:19:40.305Z,99931.66
2019-02-25T07:21:00.191Z,99933.04
2019-02-25T07:22:05.857Z,99927.01
2019-02-25T07:23:27.627Z,99921.91
2019-02-25T07:24:40.678Z,99925.16
2019-02-25T07:25:44.523Z,99931.02
2019-02-25T07:26:54.618Z,99931.75
2019-02-25T07:27:56.407Z,99935.45
2019-02-25T07:29:04.079Z,99940.06
2019-02-25T07:30:11.571Z,99932.67
2019-02-25T07:31:17.791Z,99930.98
2019-02-25T07:32:38.299Z,99935.52
2019-02-25T07:33:48.071Z,99930.00
2019-02-25T07:34:52.498Z,99926.92
2019-02-25T07:36:14.574Z,99929.02
2019-02-25T07:37:18.529Z,99932.34
2019-02-25T07:38:24.835Z,99935.21
2019-02-25T07:39:31.765Z,99931.33
2019-02-25T07:40:47.540Z,99925.98
2019-02-25T07:42:08.077Z,99930.85
2019-02-25T07:43:15.564Z,99913.81
2019-02-25T07:44:32.722Z,99920.25
2019-02-25T07:45:39.261Z,99924.98
2019-02-25T07:46:45.891Z,99922.13
2019-02-25T07:47:53.854Z,99917.66
2019-02-25T07:49:12.720Z,99920.87
2019-02-25T07:50:22.508Z,99927.52
2019-02-25T07:51:35.077Z,99925.23
2019-02-25T07:52:42.146Z,99930.20
2019-02-25T07:53:51.580Z,99931.27
2019-02-25T07:54:55.732Z,99925.05
2019-02-25T07:56:02.736Z,99927.00
2019-02-25T07:57:09.428Z,99929.93
2019-02-25T07:58:13.090Z,99922.81
2019-02-25T07:59:28.731Z,99921.24
2019-02-25T08:00:32.583Z,99915.99
2019-02-25T08:01:35.805Z,99911.49
2019-02-25T08:02:54.348Z,99920.59
2019-02-25T08:04:03.860Z,99913.74
2019-02-25T08:05:15.214Z,99909.11
2019-02-25T08:06:20.332Z,99905.16
2019-02-25T08:07:22.268Z,99903.69
2019-02-25T08:08:30.123Z,99889.81
2019-02-25T08:09:31.958Z,99890.12
2019-02-25T08:10:38.584Z,99890.27
2019-02-25T08:11:43.380Z,99885.42
2019-02-25T08:12:47.332Z,99884.50
2019-02-25T08:13:51.412Z,99888.35
2019-02-25T08:15:01.104Z,99885.89
2019-02-25T08:16:10.825Z,99884.63
2019-02-25T08:17:30.504Z,99881.72
2019-02-25T08:18:43.530Z,99885.71
2019-02-25T08:19:47.496Z,99883.05
2019-02-25T08:21:00.498Z,99882.26
2019-02-25T08:22:07.321Z,99879.89
2019-02-25T08:23:17.377Z,99886.51
2019-02-25T08:24:37.571Z,99884.98
2019-02-25T08:25:52.115Z,99889.84
2019-02-25T08:26:56.021Z,99886.66
2019-02-25T08:28:00.839Z,99894.83
2019-02-25T08:29:21.617Z,99890.08
2019-02-25T08:30:34.398Z,99893.93
2019-02-25T08:31:38.060Z,99896.98
2019-02-25T08:32:55.460Z,99908.74
2019-02-25T08:34:18.585Z,99906.82
2019-02-25T08:35:51.533Z,99908.98
2019-02-25T08:37:12.510Z,99909.66
2019-02-25T08:38:16.528Z,99916.28
2019-02-25T08:39:20.675Z,99909.25
2019-02-25T08:40:33.833Z,99913.38
2019-02-25T08:41:38.408Z,99923.86
2019-02-25T08:42:47.722Z,99923.18
2019-02-25T08:44:09.294Z,99928.77
2019-02-25T08:45:15.948Z,99924.50
2019-02-25T08:46:22.388Z,99927.44
2019-02-25T08:47:27.367Z,99932.93
2019-02-25T08:48:33.964Z,99938.18
2019-02-25T08:49:37.788Z,99929.35
2019-02-25T08:50:39.988Z,99928.98
2019-02-25T08:51:41.975Z,99930.68
2019-02-25T08:52:44.118Z,99936.71
2019-02-25T08:53:46.249Z,99930.68
2019-02-25T08:54:48.369Z,99931.60
2019-02-25T08:55:50.540Z,99920.21
2019-02-25T08:56:52.507Z,99924.00
2019-02-25T08:57:54.670Z,99931.50
2019-02-25T08:58:56.838Z,99936.00
2019-02-25T08:59:59.023Z,99932.17
2019-02-25T09:01:00.887Z,99944.38
2019-02-25T09:02:04.927Z,99946.42
2019-02-25T09:03:07.100Z,99948.81
2019-02-25T09:04:09.159Z,99949.77
2019-02-25T09:05:13.284Z,99944.58
2019-02-25T09:06:15.137Z,99945.13
2019-02-25T09:07:17.407Z,99945.91
2019-02-25T09:08:19.611Z,99939.95
2019-02-25T09:09:21.740Z,99949.31
2019-02-25T09:10:23.939Z,99954.91
2019-02-25T09:11:26.008Z,99945.97
2019-02-25T09:12:27.815Z,99951.21
2019-02-25T09:13:30.203Z,99952.59
2019-02-25T09:14:32.225Z,99950.81
2019-02-25T09:15:34.340Z,99952.00
2019-02-25T09:16:36.311Z,99952.50
2019-02-25T09:17:44.622Z,99951.41
2019-02-25T09:18:46.652Z,99954.59
2019-02-25T09:19:48.671Z,99955.14
2019-02-25T09:20:50.909Z,99959.05
2019-02-25T09:21:52.738Z,99958.93
2019-02-25T09:22:54.767Z,99961.59
2019-02-25T09:23:56.933Z,99952.08
2019-02-25T09:24:58.634Z,99951.41
2019-02-25T09:26:00.660Z,99955.28
2019-02-25T09:27:02.886Z,99942.83
2019-02-25T09:28:04.866Z,99952.63
2019-02-25T09:29:06.950Z,99940.03
2019-02-25T09:30:17.864Z,99937.72
2019-02-25T09:31:21.352Z,99937.06
2019-02-25T09:32:23.591Z,99932.86
2019-02-25T09:33:25.876Z,99932.86
2019-02-25T09:34:27.684Z,99938.98
2019-02-25T09:35:29.756Z,99939.20
2019-02-25T09:36:31.643Z,99940.52
2019-02-25T09:37:33.524Z,99939.09
2019-02-25T09:38:35.877Z,99939.63
2019-02-25T09:39:37.708Z,99945.48
2019-02-25T09:40:41.926Z,99941.02
2019-02-25T09:41:44.829Z,99944.89
2019-02-25T09:42:46.611Z,99942.77
2019-02-25T09:43:48.655Z,99940.31
2019-02-25T09:44:50.744Z,99944.36
2019-02-25T09:45:52.941Z,99943.23
2019-02-25T09:46:54.915Z,99941.30
2019-02-25T09:47:56.879Z,99947.02
2019-02-25T09:48:58.918Z,99941.75
2019-02-25T09:50:00.882Z,99944.61
2019-02-25T09:51:02.775Z,99949.95
2019-02-25T09:52:04.670Z,99944.34
2019-02-25T09:53:08.809Z,99946.34
2019-02-25T09:54:12.607Z,99947.87
2019-02-25T09:55:14.810Z,99949.91
2019-02-25T09:56:16.722Z,99946.25
2019-02-25T09:57:18.621Z,99947.47
2019-02-25T09:58:20.374Z,99936.53
2019-02-25T09:59:22.315Z,99936.92
2019-02-25T10:00:24.326Z,99935.79
2019-02-25T10:01:26.201Z,99937.61
2019-02-25T10:02:28.307Z,99944.17
2019-02-25T10:03:30.249Z,99938.72
2019-02-25T10:04:32.331Z,99941.61
2019-02-25T10:05:34.394Z,99939.88
2019-02-25T10:06:36.515Z,99943.88
2019-02-25T10:07:39.499Z,99942.19
2019-02-25T10:08:41.547Z,99944.41
2019-02-25T10:09:43.819Z,99940.22
2019-02-25T10:10:46.156Z,99935.00
2019-02-25T10:11:48.737Z,99936.28
2019-02-25T10:12:51.542Z,99934.61
2019-02-25T10:13:55.618Z,99927.28
2019-02-25T10:14:57.565Z,99924.75
2019-02-25T10:15:59.440Z,99931.15
2019-02-25T10:17:01.488Z,99915.66
2019-02-25T10:18:03.596Z,99917.36
2019-02-25T10:19:05.866Z,99916.36
2019-02-25T10:20:08.846Z,99916.55
2019-02-25T10:21:10.770Z,99918.03
2019-02-25T10:22:12.734Z,99915.90
2019-02-25T10:23:14.629Z,99916.89
2019-02-25T10:24:18.496Z,99909.72
2019-02-25T10:25:20.500Z,99905.73
2019-02-25T10:26:22.821Z,99890.44
2019-02-25T10:27:24.884Z,99895.06
2019-02-25T10:28:26.808Z,99900.59
2019-02-25T10:29:30.946Z,99893.73
2019-02-25T10:30:32.642Z,99887.82
2019-02-25T10:31:38.100Z,99889.08
2019-02-25T10:32:40.394Z,99895.33
2019-02-25T10:33:42.270Z,99885.80
2019-02-25T10:34:44.471Z,99892.08
2019-02-25T10:35:46.353Z,99895.06
2019-02-25T10:36:48.673Z,99885.74
2019-02-25T10:37:54.035Z,99891.56
2019-02-25T10:38:55.875Z,99884.52
2019-02-25T10:39:58.567Z,99889.19
2019-02-25T10:41:00.576Z,99894.39
2019-02-25T10:42:02.858Z,99884.25
2019-02-25T10:43:05.009Z,99880.52
2019-02-25T10:44:08.507Z,99882.65
2019-02-25T10:45:22.152Z,99869.72
2019-02-25T10:46:24.227Z,99873.84
2019-02-25T10:47:27.741Z,99868.66
2019-02-25T10:48:29.604Z,99876.33
2019-02-25T10:49:33.559Z,99872.34
2019-02-25T10:50:35.964Z,99862.69
2019-02-25T10:51:40.646Z,99870.05
2019-02-25T10:52:42.870Z,99861.03
2019-02-25T10:53:47.815Z,99866.78
2019-02-25T10:54:52.044Z,99857.21
2019-02-25T10:56:01.354Z,99861.35
2019-02-25T10:57:04.650Z,99852.22
2019-02-25T10:58:11.374Z,99849.61
2019-02-25T10:59:13.469Z,99847.13
2019-02-25T11:00:19.525Z,99847.80
2019-02-25T11:01:24.587Z,99852.14
2019-02-25T11:02:26.758Z,99852.52
2019-02-25T11:03:28.636Z,99842.05
2019-02-25T11:04:30.628Z,99845.05
2019-02-25T11:05:32.902Z,99848.56
2019-02-25T11:06:36.002Z,99845.46
2019-02-25T11:07:39.827Z,99848.65
2019-02-25T11:08:45.716Z,99851.02
2019-02-25T11:09:50.464Z,99855.05
2019-02-25T11:10:57.630Z,99848.39
2019-02-25T11:12:00.241Z,99848.40
2019-02-25T11:13:04.215Z,99843.19
2019-02-25T11:14:07.269Z,99836.08
2019-02-25T11:15:11.643Z,99838.38
2019-02-25T11:16:16.464Z,99837.16
2019-02-25T11:17:20.426Z,99828.13
2019-02-25T11:18:24.512Z,99832.75
2019-02-25T11:19:28.635Z,99830.06
2019-02-25T11:20:31.730Z,99830.41
2019-02-25T11:21:35.317Z,99839.20
2019-02-25T11:22:39.823Z,99828.25
2019-02-25T11:23:43.423Z,99827.59
2019-02-25T11:24:49.128Z,99821.49
2019-02-25T11:25:51.494Z,99831.52
2019-02-25T11:26:54.069Z,99829.14
2019-02-25T11:27:57.055Z,99824.67
2019-02-25T11:29:00.191Z,99826.89
2019-02-25T11:30:05.106Z,99826.56
2019-02-25T11:31:07.354Z,99824.16
2019-02-25T11:32:09.546Z,99822.32
2019-02-25T11:33:11.375Z,99829.53
2019-02-25T11:34:13.034Z,99828.94
2019-02-25T11:35:15.041Z,99836.53
2019-02-25T11:36:17.909Z,99831.34
2019-02-25T11:37:22.557Z,99819.17
2019-02-25T11:38:26.137Z,99824.42
2019-02-25T11:39:30.229Z,99818.95
2019-02-25T11:40:34.111Z,99819.68
2019-02-25T11:41:38.398Z,99827.36
2019-02-25T11:42:40.652Z,99821.74
2019-02-25T11:43:43.975Z,99815.94
2019-02-25T11:44:46.741Z,99818.52
2019-02-25T11:45:48.627Z,99816.52
2019-02-25T11:46:50.630Z,99816.05
2019-02-25T11:47:52.939Z,99818.57
2019-02-25T11:48:54.637Z,99819.34
2019-02-25T11:49:56.687Z,99818.14
2019-02-25T11:50:58.691Z,99822.47
2019-02-25T11:52:00.663Z,99810.42
2019-02-25T11:53:02.695Z,99804.92
2019-02-25T11:54:04.659Z,99805.28
2019-02-25T11:55:14.359Z,99801.29
2019-02-25T11:56:16.232Z,99808.86
2019-02-25T11:57:20.772Z,99798.79
2019-02-25T11:58:22.645Z,99803.48
2019-02-25T11:59:26.366Z,99797.92
2019-02-25T12:00:28.806Z,99791.27
2019-02-25T12:01:30.934Z,99787.61
2019-02-25T12:02:33.198Z,99792.04
2019-02-25T12:03:35.232Z,99791.23
2019-02-25T12:04:37.271Z,99774.91
2019-02-25T12:05:39.336Z,99778.34
2019-02-25T12:06:41.094Z,99773.77
2019-02-25T12:07:44.570Z,99779.72
2019-02-25T12:08:46.664Z,99773.58
2019-02-25T12:09:48.604Z,99780.05
2019-02-25T12:10:50.729Z,99780.11
2019-02-25T12:11:52.642Z,99778.45
2019-02-25T12:12:56.152Z,99772.59
2019-02-25T12:13:58.120Z,99775.59
2019-02-25T12:15:00.301Z,99769.60
2019-02-25T12:16:02.509Z,99769.02
2019-02-25T12:17:04.610Z,99763.36
2019-02-25T12:18:06.838Z,99767.13
2019-02-25T12:19:17.602Z,99760.23
2019-02-25T12:20:13.341Z,99762.28
2019-02-25T12:21:15.196Z,99751.45
2019-02-25T12:22:17.223Z,99753.49
2019-02-25T12:23:19.233Z,99752.86